Time;durP1;ratioP1;P1;durP2;ratioP2;P2;SDS_P1;SDS_P2;PMS_P1;PMS_P2;Temp;Humidity;BMP_temperature;BMP_pressure;BME280_temperature;BME280_humidity;BME280_pressure;Samples;Min_cycle;Max_cycle;Signal;HPM_P1;HPM_P2
2021/06/03 00:00:28;;;;;;;7.05;2.70;;;;;;;21.44;50.36;101273.88;4994205;28;20121;-66
2021/06/03 00:02:54;;;;;;;6.20;3.25;;;;;;;;;;4987827;28;20074;-66
2021/06/03 00:05:22;;;;;;;6.07;3.10;;;;;;;21.40;50.18;101281.16;4993120;28;20050;-65
2021/06/03 00:07:48;;;;;;;5.80;3.15;;;;;;;21.40;50.46;101286.44;4992157;28;20050;-66
2021/06/03 00:10:16;;;;;;;6.82;2.83;;;;;;;21.41;50.50;101293.41;4999673;28;20464;-65
2021/06/03 00:12:43;;;;;;;8.00;2.55;;;;;;;21.39;50.72;101299.75;4991201;28;20692;-65
2021/06/03 00:15:12;;;;;;;6.15;2.50;;;;;;;21.34;51.15;101289.41;4994394;28;20475;-66
2021/06/03 00:17:38;;;;;;;6.53;3.08;;;;;;;21.27;51.29;101286.25;4995253;28;20050;-64
2021/06/03 00:20:06;;;;;;;6.07;3.20;;;;;;;21.27;51.59;101283.59;4999461;28;20475;-66
2021/06/03 00:22:32;;;;;;;5.40;2.92;;;;;;;21.26;51.88;101286.34;4987293;28;20057;-64
2021/06/03 00:24:58;;;;;;;10.32;3.13;;;;;;;21.18;52.16;101283.28;4990326;28;20054;-63
2021/06/03 00:27:25;;;;;;;4.53;2.42;;;;;;;21.13;53.07;101279.06;4992307;28;20124;-65
2021/06/03 00:29:52;;;;;;;8.75;3.25;;;;;;;21.13;53.41;101289.66;4992322;28;20053;-63
2021/06/03 00:32:18;;;;;;;7.85;2.65;;;;;;;21.10;53.72;101281.03;4992358;28;20077;-65
2021/06/03 00:34:44;;;;;;;5.38;3.00;;;;;;;21.07;53.98;101278.56;5003386;28;20043;-65
2021/06/03 00:37:10;;;;;;;10.20;3.22;;;;;;;21.07;54.56;101287.38;5005733;28;20112;-64
2021/06/03 00:39:36;;;;;;;6.30;3.20;;;;;;;21.08;54.63;101288.22;4998007;28;20053;-65
2021/06/03 00:42:02;;;;;;;9.05;3.38;;;;;;;21.05;54.98;101281.31;5000482;28;20066;-65
2021/06/03 00:44:29;;;;;;;6.55;2.97;;;;;;;21.04;55.14;101276.09;5008596;28;20065;-65
2021/06/03 00:46:55;;;;;;;11.02;3.53;;;;;;;21.02;55.32;101275.34;4998522;28;20042;-65
2021/06/03 00:49:21;;;;;;;8.30;3.15;;;;;;;21.08;55.68;101286.44;4997748;28;20598;-66
2021/06/03 00:51:47;;;;;;;9.82;3.60;;;;;;;21.09;56.02;101285.50;5005449;28;20053;-66
2021/06/03 00:54:13;;;;;;;7.80;3.20;;;;;;;21.11;56.37;101296.81;5004912;28;20053;-64
2021/06/03 00:56:39;;;;;;;11.73;3.40;;;;;;;21.11;57.75;101291.53;5009026;28;20132;-64
2021/06/03 00:59:05;;;;;;;11.20;3.63;;;;;;;21.16;61.01;101287.78;5001402;28;20049;-64
2021/06/03 01:01:32;;;;;;;17.20;4.55;;;;;;;21.16;62.34;101290.44;5005400;28;20136;-63
2021/06/03 01:03:59;;;;;;;8.88;3.90;;;;;;;21.14;64.24;101293.19;5004995;28;20049;-65
2021/06/03 01:06:26;;;;;;;11.57;3.78;;;;;;;21.08;64.42;101293.50;5004227;28;20041;-63
2021/06/03 01:09:00;;;;;;;7.60;4.20;;;;;;;20.99;64.93;101304.56;4994186;28;20524;-65
2021/06/03 01:11:32;;;;;;;7.82;4.15;;;;;;;20.92;65.39;101301.41;4996870;28;20054;-65
2021/06/03 01:14:03;;;;;;;10.43;3.67;;;;;;;20.93;65.67;101282.84;5012644;28;20052;-61
2021/06/03 01:16:31;;;;;;;10.07;4.13;;;;;;;20.79;65.46;101282.72;5012622;28;20423;-64
2021/06/03 01:19:00;;;;;;;7.60;3.63;;;;;;;20.74;66.00;101280.31;5012954;28;20050;-63
2021/06/03 01:21:30;;;;;;;8.93;4.28;;;;;;;20.77;66.51;101276.66;5000848;28;20112;-65
2021/06/03 01:24:09;;;;;;;7.55;4.30;;;;;;;20.70;66.86;101281.41;5007268;28;20054;-66
2021/06/03 01:26:35;;;;;;;9.05;4.13;;;;;;;20.58;66.67;101279.41;4994501;28;20050;-64
2021/06/03 01:29:02;;;;;;;9.35;4.50;;;;;;;20.51;67.00;101285.00;4995691;28;20050;-66
2021/06/03 01:31:28;;;;;;;8.45;3.88;;;;;;;20.48;68.23;101282.53;5000186;28;20125;-65
2021/06/03 01:33:54;;;;;;;9.90;4.50;;;;;;;20.42;68.29;101274.91;4996217;28;20189;-66
2021/06/03 01:36:21;;;;;;;9.68;4.55;;;;;;;20.34;67.35;101287.66;4998890;28;20101;-65
2021/06/03 01:38:47;;;;;;;9.55;4.63;;;;;;;20.24;67.48;101292.59;4990925;28;20088;-66
2021/06/03 01:41:15;;;;;;;7.38;4.28;;;;;;;20.23;67.97;101290.88;4993051;28;20119;-66
2021/06/03 01:43:43;;;;;;;14.18;4.70;;;;;;;20.22;68.04;101293.56;4998974;28;20061;-64
2021/06/03 01:46:10;;;;;;;7.47;3.90;;;;;;;20.24;68.57;101299.63;4994887;28;20053;-64
2021/06/03 01:48:37;;;;;;;7.13;4.50;;;;;;;20.27;68.84;101294.22;4995431;28;20053;-65
2021/06/03 01:51:06;;;;;;;14.77;5.40;;;;;;;20.25;68.77;101293.44;4993480;28;20427;-65
2021/06/03 01:53:33;;;;;;;9.93;5.47;;;;;;;20.26;68.55;101300.41;4993035;28;20102;-65
2021/06/03 01:56:01;;;;;;;10.68;4.72;;;;;;;20.23;69.16;101290.88;4995791;28;20049;-66
2021/06/03 01:58:29;;;;;;;8.93;4.55;;;;;;;20.18;69.97;101288.47;4997892;28;20054;-64
2021/06/03 02:00:56;;;;;;;7.13;4.57;;;;;;;20.14;70.25;101281.63;4994531;28;20054;-64
2021/06/03 02:03:22;;;;;;;15.63;4.95;;;;;;;20.12;70.45;101286.13;4994454;28;20054;-63
2021/06/03 02:05:48;;;;;;;9.93;4.47;;;;;;;20.13;70.61;101289.63;4993097;28;20107;-66
2021/06/03 02:08:14;;;;;;;8.00;4.30;;;;;;;20.10;70.50;101290.66;4997918;28;20049;-65
2021/06/03 02:10:41;;;;;;;8.60;4.38;;;;;;;20.01;70.60;101284.03;4996104;28;20038;-62
2021/06/03 02:13:13;;;;;;;8.75;4.90;;;;;;;19.95;70.71;101288.75;4994828;28;20538;-66
2021/06/03 02:15:47;;;;;;;8.63;5.18;;;;;;;19.92;70.84;101287.13;4997782;28;20073;-66
2021/06/03 02:18:16;;;;;;;9.38;5.20;;;;;;;19.88;70.73;101289.06;4995538;28;20680;-63
2021/06/03 02:20:46;;;;;;;6.68;4.53;;;;;;;19.82;70.94;101281.41;4992236;28;20065;-66
2021/06/03 02:23:14;;;;;;;11.63;5.22;;;;;;;19.73;71.11;101300.34;4994281;28;20050;-63
2021/06/03 02:25:40;;;;;;;8.02;5.10;;;;;;;19.68;70.95;101294.44;4995085;28;20052;-66
2021/06/03 02:28:07;;;;;;;8.95;4.78;;;;;;;19.65;71.28;101300.75;5002529;28;20053;-64
2021/06/03 02:30:34;;;;;;;7.47;4.63;;;;;;;19.65;71.63;101307.78;4999634;28;20152;-65
2021/06/03 02:33:02;;;;;;;9.02;4.28;;;;;;;19.64;71.21;101304.31;4990472;28;20438;-66
2021/06/03 02:35:29;;;;;;;7.25;4.50;;;;;;;19.68;70.92;101297.94;4991745;28;20141;-65
2021/06/03 02:37:55;;;;;;;7.93;4.65;;;;;;;19.67;71.00;101303.28;4994523;28;20124;-65
2021/06/03 02:40:23;;;;;;;8.65;4.97;;;;;;;19.70;71.65;101303.16;4991669;28;20203;-64
2021/06/03 02:42:51;;;;;;;7.63;5.10;;;;;;;19.70;71.45;101301.34;4997011;28;20077;-62
2021/06/03 02:45:21;;;;;;;6.00;3.97;;;;;;;19.68;71.38;101315.56;4992297;28;20487;-65
2021/06/03 02:47:47;;;;;;;7.70;4.35;;;;;;;19.64;71.42;101314.00;4994128;28;20442;-66
2021/06/03 02:50:17;;;;;;;7.47;4.50;;;;;;;19.62;71.59;101323.75;4994862;28;20065;-63
2021/06/03 02:52:43;;;;;;;7.80;4.68;;;;;;;19.58;71.55;101325.69;4995219;28;20050;-64
2021/06/03 02:55:11;;;;;;;7.85;4.70;;;;;;;19.54;71.64;101322.34;4995512;28;20050;-60
2021/06/03 02:57:38;;;;;;;7.75;4.55;;;;;;;19.52;71.58;101318.91;4994033;28;20130;-64
2021/06/03 03:00:09;;;;;;;9.60;4.63;;;;;;;19.52;71.05;101324.19;4991940;28;20131;-65
2021/06/03 03:02:35;;;;;;;8.63;4.28;;;;;;;19.44;71.12;101329.00;4991450;28;20038;-65
2021/06/03 03:05:01;;;;;;;8.07;4.88;;;;;;;19.40;71.02;101332.72;4989194;28;20061;-64
2021/06/03 03:07:29;;;;;;;6.63;4.30;;;;;;;19.36;71.05;101336.41;4991685;28;20104;-65
2021/06/03 03:09:55;;;;;;;8.23;4.57;;;;;;;19.31;71.37;101343.69;4993517;28;20058;-66
2021/06/03 03:12:21;;;;;;;7.68;4.22;;;;;;;19.25;70.93;101339.56;4996557;28;20531;-65
2021/06/03 03:14:46;;;;;;;8.10;4.45;;;;;;;19.22;70.74;101337.06;4992724;28;20162;-65
2021/06/03 03:17:12;;;;;;;8.45;4.05;;;;;;;19.18;70.03;101338.09;4997515;28;20508;-66
2021/06/03 03:19:38;;;;;;;8.70;4.65;;;;;;;19.21;69.43;101338.84;4991998;28;20046;-64
2021/06/03 03:22:04;;;;;;;9.95;5.10;;;;;;;19.23;69.42;101347.53;4991642;28;20062;-65
2021/06/03 03:24:32;;;;;;;7.00;4.20;;;;;;;19.21;69.42;101346.75;4992289;28;20054;-63
2021/06/03 03:26:58;;;;;;;9.30;4.93;;;;;;;19.21;68.94;101348.53;4989424;28;20054;-65
2021/06/03 03:29:24;;;;;;;9.02;4.90;;;;;;;19.17;69.06;101345.19;4994707;28;20049;-65
2021/06/03 03:31:50;;;;;;;8.85;4.68;;;;;;;19.13;68.58;101343.59;4993291;28;20438;-65
2021/06/03 03:34:16;;;;;;;9.85;4.57;;;;;;;19.09;68.14;101356.06;4995925;28;20055;-65
2021/06/03 03:36:42;;;;;;;11.15;4.82;;;;;;;19.09;68.30;101355.22;4997226;28;20069;-65
2021/06/03 03:39:08;;;;;;;9.32;4.95;;;;;;;19.06;68.21;101363.25;4993755;28;20050;-67
2021/06/03 03:41:35;;;;;;;7.75;4.70;;;;;;;19.02;67.81;101359.03;4990520;28;20053;-64
2021/06/03 03:44:01;;;;;;;10.43;5.10;;;;;;;19.03;67.90;101360.75;4991458;28;20050;-65
2021/06/03 03:46:27;;;;;;;9.30;4.93;;;;;;;19.01;67.52;101367.91;4991371;28;20578;-65
2021/06/03 03:48:53;;;;;;;7.38;4.43;;;;;;;19.01;67.41;101367.91;4990609;28;20475;-65
2021/06/03 03:51:19;;;;;;;8.55;5.10;;;;;;;19.00;67.61;101371.47;4992653;28;20050;-64
2021/06/03 03:53:45;;;;;;;11.45;4.68;;;;;;;19.04;67.90;101375.66;4991891;28;20054;-66
2021/06/03 03:56:12;;;;;;;7.63;4.32;;;;;;;19.05;68.09;101380.88;4988963;28;20050;-65
2021/06/03 03:58:42;;;;;;;10.88;4.68;;;;;;;19.09;67.86;101379.81;4992452;28;20112;-63
2021/06/03 04:01:08;;;;;;;9.98;4.88;;;;;;;19.10;67.96;101385.94;4994278;28;20050;-64
2021/06/03 04:03:34;;;;;;;8.95;4.35;;;;;;;19.08;67.93;101379.88;4995625;28;20058;-64
2021/06/03 04:06:00;;;;;;;7.60;4.38;;;;;;;19.07;67.60;101389.56;4991919;28;20069;-65
2021/06/03 04:08:26;;;;;;;9.60;4.50;;;;;;;19.07;67.57;101384.28;4990901;28;20046;-63
2021/06/03 04:10:53;;;;;;;10.88;4.57;;;;;;;19.08;68.01;101393.06;4992719;28;20057;-67
2021/06/03 04:13:19;;;;;;;9.70;4.40;;;;;;;19.09;67.81;101397.41;4988954;28;20423;-64
2021/06/03 04:15:48;;;;;;;10.85;4.15;;;;;;;19.16;68.05;101403.28;4990659;28;20137;-64
2021/06/03 04:18:14;;;;;;;8.48;4.00;;;;;;;19.16;67.51;101398.00;5005412;28;20061;-65
2021/06/03 04:20:40;;;;;;;7.10;3.90;;;;;;;19.20;67.60;101402.19;5016869;28;20080;-63
2021/06/03 04:23:06;;;;;;;11.85;4.93;;;;;;;19.21;67.92;101401.28;5001313;28;20102;-62
2021/06/03 04:25:32;;;;;;;7.78;3.65;;;;;;;19.26;67.56;101405.41;5002817;28;20061;-63
2021/06/03 04:27:59;;;;;;;8.20;4.28;;;;;;;19.30;67.32;101407.94;5004159;28;20093;-64
2021/06/03 04:30:27;;;;;;;7.72;4.20;;;;;;;19.36;67.32;101411.16;5001368;28;20053;-65
2021/06/03 04:32:55;;;;;;;6.85;3.58;;;;;;;19.46;66.75;101411.56;5000884;28;20684;-65
2021/06/03 04:35:24;;;;;;;7.93;4.00;;;;;;;19.50;66.63;101414.91;5005769;28;20054;-65
2021/06/03 04:37:51;;;;;;;9.07;3.95;;;;;;;19.62;66.85;101411.72;5010675;28;20501;-64
2021/06/03 04:40:20;;;;;;;7.22;3.63;;;;;;;19.69;66.56;101415.78;5007436;28;20444;-63
2021/06/03 04:42:46;;;;;;;7.32;3.85;;;;;;;19.77;66.59;101419.81;4996856;28;20050;-66
2021/06/03 04:45:13;;;;;;;7.97;3.35;;;;;;;19.98;66.11;101415.34;4997936;28;20535;-65
2021/06/03 04:47:39;;;;;;;5.97;3.40;;;;;;;20.26;65.02;101421.94;4999371;28;20049;-64
2021/06/03 04:50:08;;;;;;;9.30;3.65;;;;;;;20.41;64.23;101415.03;4998649;28;22103;-64
2021/06/03 04:52:35;;;;;;;6.30;3.50;;;;;;;20.49;63.55;101411.09;4994181;28;20057;-67
2021/06/03 04:55:06;;;;;;;9.75;4.00;;;;;;;20.61;63.64;101421.97;4996218;28;20046;-64
2021/06/03 04:57:33;;;;;;;6.38;3.55;;;;;;;20.74;63.35;101415.16;4993681;28;20072;-66
2021/06/03 04:59:59;;;;;;;8.20;3.90;;;;;;;21.09;62.54;101415.09;4999439;28;20054;-64
2021/06/03 05:02:25;;;;;;;15.10;3.78;;;;;;;21.46;60.64;101422.00;4994304;28;20053;-67
2021/06/03 05:04:52;;;;;;;9.07;3.20;;;;;;;21.64;60.69;101422.81;4995115;28;20077;-64
2021/06/03 05:07:19;;;;;;;9.65;4.15;;;;;;;21.74;60.43;101422.22;4993704;28;20049;-66
2021/06/03 05:09:47;;;;;;;5.68;2.88;;;;;;;21.84;59.50;101424.34;4993484;28;20059;-64
2021/06/03 05:12:13;;;;;;;10.82;3.30;;;;;;;21.69;59.69;101424.28;4996902;28;20621;-64
2021/06/03 05:14:40;;;;;;;6.25;3.20;;;;;;;21.66;59.87;101423.59;4999678;28;20054;-71
2021/06/03 05:17:06;;;;;;;9.32;3.58;;;;;;;21.65;60.82;101417.44;4999110;28;20061;-64
2021/06/03 05:19:32;;;;;;;10.23;3.90;;;;;;;21.59;59.87;101431.03;4999949;28;20057;-64
2021/06/03 05:21:58;;;;;;;6.78;2.97;;;;;;;21.49;60.32;101429.78;4996797;28;20061;-66
2021/06/03 05:24:26;;;;;;;5.50;3.13;;;;;;;21.31;60.22;101429.81;4997643;28;20042;-64
2021/06/03 05:26:52;;;;;;;6.78;3.08;;;;;;;21.28;60.50;101432.66;4994820;28;20053;-64
2021/06/03 05:29:18;;;;;;;6.90;3.00;;;;;;;21.26;60.94;101439.81;4999475;28;20088;-66
2021/06/03 05:31:45;;;;;;;10.13;3.20;;;;;;;21.22;61.38;101446.19;4993055;28;20092;-65
2021/06/03 05:34:11;;;;;;;6.70;3.72;;;;;;;21.22;61.72;101441.75;5009819;28;20045;-66
2021/06/03 05:36:38;;;;;;;9.40;3.50;;;;;;;21.30;61.65;101446.66;5019878;28;20099;-65
2021/06/03 05:39:04;;;;;;;7.40;3.22;;;;;;;21.33;61.39;101448.28;4999882;28;20058;-65
2021/06/03 05:41:33;;;;;;;8.10;3.88;;;;;;;21.39;60.90;101448.81;4995161;28;20057;-65
2021/06/03 05:43:59;;;;;;;7.72;3.85;;;;;;;21.51;60.96;101449.94;4995855;28;20883;-65
2021/06/03 05:46:25;;;;;;;6.53;3.40;;;;;;;21.62;61.58;101462.59;4994392;28;20065;-67
2021/06/03 05:48:51;;;;;;;6.53;3.22;;;;;;;21.77;60.80;101465.38;4995479;28;20053;-66
2021/06/03 05:51:17;;;;;;;9.90;3.60;;;;;;;21.85;60.66;101469.31;4993782;28;20169;-64
2021/06/03 05:53:44;;;;;;;9.10;3.50;;;;;;;21.99;59.99;101465.03;4997663;28;20567;-65
2021/06/03 05:56:10;;;;;;;10.60;3.53;;;;;;;22.15;60.24;101465.88;4992799;28;20051;-66
2021/06/03 05:58:37;;;;;;;6.07;3.15;;;;;;;22.16;59.60;101462.25;4990291;28;20057;-67
2021/06/03 06:01:04;;;;;;;10.23;3.55;;;;;;;22.19;59.95;101469.22;4995696;28;20053;-65
2021/06/03 06:03:37;;;;;;;8.68;3.13;;;;;;;22.17;60.14;101469.28;4995238;28;20054;-66
2021/06/03 06:06:23;;;;;;;6.95;3.03;;;;;;;22.26;59.27;101473.22;4993692;28;20054;-64
2021/06/03 06:08:50;;;;;;;10.23;3.40;;;;;;;22.38;58.77;101473.47;4997343;28;20621;-64
2021/06/03 06:11:16;;;;;;;9.48;3.38;;;;;;;22.46;58.74;101480.03;4993032;28;20053;-65
2021/06/03 06:13:44;;;;;;;9.52;3.88;;;;;;;22.86;57.47;101491.94;4998936;28;20058;-64
2021/06/03 06:16:10;;;;;;;6.28;3.03;;;;;;;23.08;57.61;101486.19;4995369;28;20503;-67
2021/06/03 06:18:37;;;;;;;8.10;3.83;;;;;;;23.23;56.81;101493.25;4992955;28;20049;-64
2021/06/03 06:21:04;;;;;;;7.72;3.33;;;;;;;23.18;56.19;101492.66;4993389;28;20455;-64
2021/06/03 06:23:32;;;;;;;6.15;3.33;;;;;;;23.06;56.76;101493.38;4993166;28;20054;-65
2021/06/03 06:25:58;;;;;;;6.63;3.00;;;;;;;23.05;56.98;101496.97;4996356;28;20054;-65
2021/06/03 06:28:24;;;;;;;6.93;3.30;;;;;;;23.06;56.95;101496.03;4994870;28;20144;-64
2021/06/03 06:30:52;;;;;;;8.18;3.10;;;;;;;23.17;56.61;101506.88;4999975;28;20045;-66
2021/06/03 06:33:18;;;;;;;7.55;3.30;;;;;;;23.30;56.40;101499.03;4991402;28;20054;-64
2021/06/03 06:35:48;;;;;;;4.40;2.72;;;;;;;23.70;54.61;101501.03;4996771;28;20474;-64
2021/06/03 06:38:14;;;;;;;7.05;3.03;;;;;;;23.84;54.52;101510.78;4999804;28;20249;-66
2021/06/03 06:40:40;;;;;;;6.82;3.17;;;;;;;23.80;55.34;101504.81;4994245;28;20077;-66
2021/06/03 06:43:06;;;;;;;6.32;3.00;;;;;;;23.65;55.29;101505.75;4991304;28;20046;-67
2021/06/03 06:45:32;;;;;;;6.45;3.25;;;;;;;23.63;55.25;101511.19;4992767;28;20124;-67
2021/06/03 06:48:00;;;;;;;8.38;2.92;;;;;;;23.65;55.42;101506.63;4989979;28;20060;-67
2021/06/03 06:50:26;;;;;;;7.85;3.22;;;;;;;23.49;56.05;101511.19;4994492;28;20100;-67
2021/06/03 06:52:53;;;;;;;5.38;3.40;;;;;;;23.63;56.62;101508.53;4992370;28;20435;-66
2021/06/03 06:55:19;;;;;;;9.13;3.78;;;;;;;23.75;55.38;101512.22;4992732;28;20128;-62
2021/06/03 06:57:45;;;;;;;4.32;2.92;;;;;;;23.78;55.81;101513.81;4992063;28;20107;-67
2021/06/03 07:00:13;;;;;;;6.38;3.17;;;;;;;23.79;56.23;101513.75;4992624;28;20046;-64
2021/06/03 07:02:39;;;;;;;8.18;3.53;;;;;;;23.74;56.71;101510.50;4990976;28;20046;-65
2021/06/03 07:05:09;;;;;;;5.80;3.65;;;;;;;23.75;57.33;101512.22;4993548;28;20515;-65
2021/06/03 07:07:35;;;;;;;8.63;3.08;;;;;;;23.79;57.46;101516.41;4991388;28;20061;-65
2021/06/03 07:10:01;;;;;;;7.50;3.70;;;;;;;23.80;57.45;101514.56;4988229;28;20058;-66
2021/06/03 07:12:27;;;;;;;9.10;3.50;;;;;;;23.69;58.29;101517.91;4989448;28;20058;-66
2021/06/03 07:14:53;;;;;;;12.10;4.28;;;;;;;23.68;57.99;101516.22;4992713;28;20046;-66
2021/06/03 07:17:19;;;;;;;5.93;3.42;;;;;;;23.60;58.36;101517.56;4994899;28;20050;-65
2021/06/03 07:19:45;;;;;;;9.23;3.53;;;;;;;23.51;58.20;101515.44;4990320;28;20511;-65
2021/06/03 07:22:12;;;;;;;9.65;3.88;;;;;;;23.37;58.48;101520.75;4995610;28;20050;-65
2021/06/03 07:24:40;;;;;;;9.02;3.50;;;;;;;23.32;59.40;101521.03;4990381;28;20053;-64
2021/06/03 07:27:07;;;;;;;8.32;3.45;;;;;;;23.37;59.17;101524.25;4991447;28;20118;-64
2021/06/03 07:29:33;;;;;;;8.32;3.60;;;;;;;23.45;58.43;101526.44;4989293;28;20058;-65
2021/06/03 07:31:59;;;;;;;6.03;3.22;;;;;;;23.66;58.10;101529.56;4991173;28;20805;-66
2021/06/03 07:34:25;;;;;;;7.28;3.90;;;;;;;23.95;58.48;101526.94;4993206;28;20059;-66
2021/06/03 07:36:51;;;;;;;8.50;3.28;;;;;;;24.45;57.20;101532.59;4991362;28;20077;-65
2021/06/03 07:39:20;;;;;;;10.05;4.13;;;;;;;24.81;56.11;101531.13;4991767;28;20065;-65
2021/06/03 07:41:47;;;;;;;6.63;3.33;;;;;;;25.23;55.12;101532.78;4989313;28;20466;-66
2021/06/03 07:44:13;;;;;;;4.80;3.00;;;;;;;25.56;54.35;101528.75;4987531;28;20889;-66
2021/06/03 07:46:39;;;;;;;7.07;3.63;;;;;;;25.54;53.56;101528.88;4990057;28;20045;-65
2021/06/03 07:49:05;;;;;;;7.07;3.15;;;;;;;25.45;53.54;101529.53;4986340;28;21405;-67
2021/06/03 07:51:32;;;;;;;9.00;3.63;;;;;;;25.20;54.31;101528.53;4986357;28;20074;-66
2021/06/03 07:53:58;;;;;;;11.27;3.90;;;;;;;25.02;55.14;101537.78;4990957;28;21066;-66
2021/06/03 07:56:25;;;;;;;10.32;3.70;;;;;;;24.82;57.24;101540.81;4989116;28;20046;-65
2021/06/03 07:58:51;;;;;;;9.40;3.90;;;;;;;24.66;58.37;101537.44;4985651;28;20053;-66
2021/06/03 08:01:17;;;;;;;11.23;4.15;;;;;;;24.42;59.99;101537.25;4992188;28;20204;-66
2021/06/03 08:03:44;;;;;;;9.30;4.70;;;;;;;24.26;60.24;101542.72;4986997;28;20142;-65
2021/06/03 08:06:10;;;;;;;9.30;4.50;;;;;;;24.16;60.38;101542.44;4991307;28;20054;-63
2021/06/03 08:08:37;;;;;;;8.00;4.22;;;;;;;23.96;61.44;101541.06;4987896;28;20490;-65
2021/06/03 08:11:03;;;;;;;9.13;3.97;;;;;;;23.91;61.61;101543.97;4988770;28;20065;-65
2021/06/03 08:13:31;;;;;;;12.30;4.82;;;;;;;23.84;61.40;101535.53;4988748;28;20053;-65
2021/06/03 08:15:57;;;;;;;11.60;4.72;;;;;;;23.80;61.12;101549.13;4992403;28;20054;-66
2021/06/03 08:18:23;;;;;;;7.70;4.75;;;;;;;23.82;62.29;101545.41;4988951;28;20046;-67
2021/06/03 08:20:52;;;;;;;8.27;4.93;;;;;;;23.76;62.46;101551.13;4988746;28;20062;-66
2021/06/03 08:23:20;;;;;;;9.38;5.00;;;;;;;23.77;63.08;101550.16;4989872;28;20085;-65
2021/06/03 08:25:47;;;;;;;10.23;4.68;;;;;;;23.84;62.41;101543.50;4987061;28;20407;-65
2021/06/03 08:28:13;;;;;;;7.13;4.88;;;;;;;23.88;61.19;101550.34;4988174;28;20057;-65
2021/06/03 08:30:40;;;;;;;9.48;5.40;;;;;;;24.01;61.32;101555.78;4988902;28;20050;-65
2021/06/03 08:33:08;;;;;;;7.50;4.28;;;;;;;24.11;60.64;101556.03;4986928;28;20058;-66
2021/06/03 08:35:35;;;;;;;11.48;4.47;;;;;;;24.20;60.29;101559.91;4988767;28;20057;-64
2021/06/03 08:38:04;;;;;;;9.90;5.07;;;;;;;24.26;60.20;101559.50;4991821;28;20507;-65
2021/06/03 08:40:32;;;;;;;10.32;5.32;;;;;;;24.33;59.07;101557.31;4983687;28;20050;-66
2021/06/03 08:43:00;;;;;;;9.00;4.70;;;;;;;24.50;59.50;101562.41;4991642;28;20045;-65
2021/06/03 08:45:27;;;;;;;11.90;5.35;;;;;;;24.55;58.75;101558.59;4988758;28;20053;-67
2021/06/03 08:47:56;;;;;;;9.27;4.45;;;;;;;24.70;58.19;101557.63;4991131;28;20665;-65
2021/06/03 08:50:24;;;;;;;8.68;4.38;;;;;;;24.94;58.67;101559.56;4989417;28;20046;-68
2021/06/03 08:52:51;;;;;;;9.13;4.90;;;;;;;25.18;58.03;101558.88;4990211;28;20120;-65
2021/06/03 08:58:01;;;;;;;8.15;4.75;;;;;;;25.51;55.45;101557.53;4988449;28;20046;-67
2021/06/03 09:00:27;;;;;;;8.75;4.43;;;;;;;25.65;57.11;101551.25;4988209;28;20057;-66
2021/06/03 09:02:53;;;;;;;10.02;4.05;;;;;;;25.85;56.39;101557.81;4993486;28;20054;-67
2021/06/03 09:05:20;;;;;;;9.93;4.55;;;;;;;25.96;55.13;101557.91;4995236;28;20452;-65
2021/06/03 09:07:48;;;;;;;13.15;4.85;;;;;;;25.94;55.72;101554.50;4991034;28;20097;-65
2021/06/03 09:10:27;;;;;;;9.23;4.75;;;;;;;26.00;54.82;101564.72;4988845;28;20050;-66
2021/06/03 09:13:11;;;;;;;8.02;4.47;;;;;;;25.98;54.92;101566.66;4999246;28;20054;-66
2021/06/03 09:15:39;;;;;;;10.25;5.50;;;;;;;25.95;55.36;101552.69;4989345;28;20069;-65
2021/06/03 09:18:08;;;;;;;10.30;4.78;;;;;;;25.94;54.63;101554.50;4995077;28;20060;-66
2021/06/03 09:20:37;;;;;;;6.10;4.35;;;;;;;25.99;55.23;101562.16;5007028;28;20487;-65
2021/06/03 09:23:03;;;;;;;8.18;4.68;;;;;;;26.18;54.78;101561.72;5008254;28;20056;-66
2021/06/03 09:25:33;;;;;;;9.90;4.28;;;;;;;26.46;53.91;101565.88;5002289;28;20466;-65
2021/06/03 09:28:21;;;;;;;10.68;4.18;;;;;;;26.85;52.33;101560.38;4998779;28;20050;-66
2021/06/03 09:31:02;;;;;;;8.50;5.00;;;;;;;26.94;51.49;101564.19;5000900;28;20474;-66
2021/06/03 09:33:46;;;;;;;9.60;4.10;;;;;;;26.90;52.28;101563.53;5000288;28;20050;-65
2021/06/03 09:36:15;;;;;;;10.48;4.90;;;;;;;26.78;53.03;101567.16;5001995;28;20050;-66
2021/06/03 09:38:53;;;;;;;9.40;4.60;;;;;;;26.56;53.66;101566.06;5002289;28;20058;-69
2021/06/03 09:41:20;;;;;;;9.13;4.63;;;;;;;26.59;53.22;101575.63;4997069;28;20046;-68
2021/06/03 09:43:46;;;;;;;9.57;4.47;;;;;;;26.65;53.00;101575.22;5008267;28;20050;-66
2021/06/03 09:46:14;;;;;;;9.70;5.22;;;;;;;26.65;52.67;101573.38;5006921;28;20100;-66
2021/06/03 09:48:42;;;;;;;8.68;4.05;;;;;;;26.66;53.16;101576.88;4999247;28;20057;-66
2021/06/03 09:51:24;;;;;;;11.48;4.78;;;;;;;26.69;55.37;101582.88;4998893;28;20050;-66
2021/06/03 09:53:52;;;;;;;7.93;4.47;;;;;;;26.65;55.79;101577.88;5000976;28;20065;-67
2021/06/03 09:56:19;;;;;;;8.57;4.60;;;;;;;26.56;55.75;101582.06;5005282;28;20534;-66
2021/06/03 09:58:45;;;;;;;8.10;4.18;;;;;;;26.43;54.86;101576.78;4997194;28;20169;-63
2021/06/03 10:01:11;;;;;;;11.48;4.07;;;;;;;26.31;55.28;101583.84;4989391;28;20050;-68
2021/06/03 10:03:49;;;;;;;6.88;2.90;;;;;;;26.28;53.88;101589.44;4987674;28;20054;-66
2021/06/03 10:06:15;;;;;;;4.75;2.40;;;;;;;26.38;52.58;101592.25;4985423;28;20128;-66
2021/06/03 10:08:48;;;;;;;6.60;2.20;;;;;;;26.41;51.02;101599.19;4994428;28;20248;-66
2021/06/03 10:11:45;;;;;;;4.68;2.05;;;;;;;26.47;50.06;101594.25;4992987;28;20519;-66
2021/06/03 10:14:12;;;;;;;6.15;2.08;;;;;;;26.56;49.84;101595.41;4990510;28;20061;-67
2021/06/03 10:16:38;;;;;;;4.85;1.90;;;;;;;26.62;49.07;101597.59;4993509;28;20061;-67
2021/06/03 10:19:18;;;;;;;4.40;1.70;;;;;;;26.70;48.47;101594.38;4995127;28;20045;-67
2021/06/03 10:21:44;;;;;;;4.97;1.80;;;;;;;26.85;48.10;101589.75;4993436;28;20049;-66
2021/06/03 10:24:12;;;;;;;4.57;1.90;;;;;;;26.82;47.75;101593.50;4996405;28;20046;-66
2021/06/03 10:26:57;;;;;;;6.07;1.83;;;;;;;26.80;48.95;101595.44;4991829;28;20066;-68
2021/06/03 10:29:23;;;;;;;6.65;2.10;;;;;;;26.96;48.69;101592.47;4994706;28;20060;-66
2021/06/03 10:31:49;;;;;;;6.07;1.98;;;;;;;27.08;47.89;101587.16;4999061;28;20049;-67
2021/06/03 10:34:17;;;;;;;5.63;2.08;;;;;;;27.10;48.85;101585.22;4994269;28;20057;-67
2021/06/03 10:36:44;;;;;;;5.20;2.30;;;;;;;27.23;47.84;101590.47;4991128;28;20467;-67
2021/06/03 10:39:12;;;;;;;3.95;1.75;;;;;;;27.38;47.73;101583.94;4994629;28;20046;-65
2021/06/03 10:41:38;;;;;;;4.13;1.70;;;;;;;27.54;47.37;101582.78;4995044;28;20053;-66
2021/06/03 10:44:06;;;;;;;3.85;2.00;;;;;;;27.57;48.53;101579.84;4992627;28;20050;-67
2021/06/03 10:46:32;;;;;;;5.13;2.05;;;;;;;27.63;48.62;101576.72;4995906;28;20191;-67
2021/06/03 10:48:58;;;;;;;6.18;2.10;;;;;;;27.72;47.12;101575.13;5003913;28;20049;-65
2021/06/03 10:51:25;;;;;;;5.13;2.05;;;;;;;27.66;48.04;101578.28;5008747;28;20144;-67
2021/06/03 10:53:51;;;;;;;5.55;2.50;;;;;;;27.73;46.89;101580.38;5004503;28;20511;-67
2021/06/03 10:56:21;;;;;;;4.60;2.20;;;;;;;27.88;48.12;101582.78;5001854;28;20054;-66
2021/06/03 10:58:49;;;;;;;3.47;1.65;;;;;;;28.16;44.63;101573.44;5003063;28;20564;-66
2021/06/03 11:01:16;;;;;;;4.72;1.60;;;;;;;28.12;45.48;101577.31;4994656;28;20045;-64
2021/06/03 11:03:45;;;;;;;5.20;1.60;;;;;;;28.30;44.30;101576.81;4992355;28;20053;-66
2021/06/03 11:06:13;;;;;;;5.88;1.67;;;;;;;28.27;43.46;101571.72;4995110;28;20060;-66
2021/06/03 11:08:44;;;;;;;4.22;1.55;;;;;;;28.13;44.71;101573.66;4990945;28;20058;-68
2021/06/03 11:11:30;;;;;;;3.30;1.70;;;;;;;28.09;45.00;101572.22;4990353;28;20037;-64
2021/06/03 11:14:02;;;;;;;3.65;1.63;;;;;;;28.19;43.66;101573.19;4990935;28;20046;-66
2021/06/03 11:16:44;;;;;;;4.18;1.80;;;;;;;28.29;44.51;101573.28;4992304;28;20058;-65
2021/06/03 11:19:12;;;;;;;3.70;2.08;;;;;;;28.41;45.04;101574.09;4990284;28;20447;-66
2021/06/03 11:22:01;;;;;;;3.85;1.90;;;;;;;28.59;43.72;101571.72;4991264;28;20053;-67
2021/06/03 11:24:39;;;;;;;4.20;2.10;;;;;;;28.81;43.78;101570.81;4989175;28;20393;-67
2021/06/03 11:27:08;;;;;;;3.65;1.70;;;;;;;28.99;42.07;101578.28;4999505;28;20056;-65
2021/06/03 11:29:36;;;;;;;4.07;1.88;;;;;;;29.07;43.58;101569.56;5004767;28;20102;-67